Time;durP1;ratioP1;P1;durP2;ratioP2;P2;SDS_P1;SDS_P2;PMS_P1;PMS_P2;Temp;Humidity;BMP_temperature;BMP_pressure;BME280_temperature;BME280_humidity;BME280_pressure;Samples;Min_cycle;Max_cycle;Signal;HPM_P1;HPM_P2
2021/01/30 00:00:40;;;;;;;1.47;1.10;;;4.70;99.90;;;;;;5054113;28;20175;-62
2021/01/30 00:03:08;;;;;;;1.20;1.00;;;4.70;99.90;;;;;;5065510;28;20428;-62
2021/01/30 00:05:35;;;;;;;2.67;1.20;;;4.70;99.90;;;;;;5061854;28;20421;-61
2021/01/30 00:08:01;;;;;;;1.40;0.90;;;4.70;99.90;;;;;;5056403;28;20512;-63
2021/01/30 00:10:27;;;;;;;0.70;0.70;;;4.70;99.90;;;;;;5062071;28;20694;-61
2021/01/30 00:12:53;;;;;;;1.87;1.10;;;4.70;99.90;;;;;;5063944;28;20429;-63
2021/01/30 00:15:25;;;;;;;1.40;1.07;;;4.70;99.90;;;;;;5065672;28;20429;-63
2021/01/30 00:17:52;;;;;;;1.47;0.90;;;4.70;99.90;;;;;;5057821;28;20206;-64
2021/01/30 00:20:27;;;;;;;0.80;0.80;;;4.70;99.90;;;;;;5053548;28;20414;-61
2021/01/30 00:22:54;;;;;;;2.83;1.00;;;4.70;99.90;;;;;;5051742;28;20424;-62
2021/01/30 00:25:22;;;;;;;2.13;1.30;;;4.70;99.90;;;;;;5057202;28;20471;-62
2021/01/30 00:27:48;;;;;;;1.57;1.10;;;4.70;99.90;;;;;;5060452;28;20470;-62
2021/01/30 00:30:17;;;;;;;1.30;1.13;;;4.70;99.90;;;;;;5060148;28;20500;-63
2021/01/30 00:32:42;;;;;;;1.63;1.53;;;4.70;99.90;;;;;;5063237;28;20557;-63
2021/01/30 00:35:10;;;;;;;2.27;1.03;;;4.70;99.90;;;;;;5064331;28;20449;-61
2021/01/30 00:37:36;;;;;;;1.10;1.00;;;4.60;99.90;;;;;;5065936;28;20245;-63
2021/01/30 00:40:02;;;;;;;1.00;0.90;;;4.60;99.90;;;;;;5056138;28;20837;-62
2021/01/30 00:42:29;;;;;;;3.03;1.00;;;4.60;99.90;;;;;;5042775;28;20186;-60
2021/01/30 00:44:55;;;;;;;1.03;0.93;;;4.60;99.90;;;;;;5048382;28;20476;-62
2021/01/30 00:47:21;;;;;;;1.13;0.60;;;4.60;99.90;;;;;;5045656;28;20209;-60
2021/01/30 00:49:47;;;;;;;7.03;1.00;;;4.60;99.90;;;;;;5043451;28;20429;-61
2021/01/30 00:52:15;;;;;;;0.87;0.87;;;4.60;99.90;;;;;;5047339;28;20417;-61
2021/01/30 00:54:41;;;;;;;1.47;1.20;;;4.60;99.90;;;;;;5048283;28;20440;-61
2021/01/30 00:57:07;;;;;;;0.80;0.80;;;4.60;99.90;;;;;;5043213;28;20848;-62
2021/01/30 00:59:33;;;;;;;3.07;0.90;;;4.60;99.90;;;;;;5045836;28;20661;-61
2021/01/30 01:01:59;;;;;;;1.13;0.90;;;4.60;99.90;;;;;;5047468;28;20529;-60
2021/01/30 01:04:25;;;;;;;2.20;0.90;;;4.60;99.90;;;;;;5041385;28;20535;-61
2021/01/30 01:06:51;;;;;;;0.90;0.90;;;4.60;99.90;;;;;;5048784;28;20203;-62
2021/01/30 01:09:18;;;;;;;1.10;1.00;;;4.60;99.90;;;;;;5048955;28;20798;-62
2021/01/30 01:11:46;;;;;;;1.43;1.00;;;4.60;99.90;;;;;;5049696;28;20194;-60
2021/01/30 01:14:11;;;;;;;2.30;1.03;;;4.60;99.90;;;;;;5040966;28;20470;-61
2021/01/30 01:16:37;;;;;;;1.10;1.10;;;4.60;99.90;;;;;;5047998;28;20492;-60
2021/01/30 01:19:04;;;;;;;1.20;0.93;;;4.60;99.90;;;;;;5045720;28;20180;-62
2021/01/30 01:21:30;;;;;;;0.93;0.90;;;4.60;99.90;;;;;;5049387;28;20786;-61
2021/01/30 01:23:56;;;;;;;1.43;0.90;;;4.60;99.90;;;;;;5050375;28;20435;-62
2021/01/30 01:26:22;;;;;;;1.00;1.00;;;4.60;99.90;;;;;;5053738;28;20490;-61
2021/01/30 01:28:51;;;;;;;1.03;0.90;;;4.50;99.90;;;;;;5051641;28;20199;-61
2021/01/30 01:31:19;;;;;;;0.90;0.80;;;4.50;99.90;;;;;;5044870;28;20895;-62
2021/01/30 01:33:45;;;;;;;1.63;1.00;;;4.40;99.90;;;;;;5048352;28;21128;-61
2021/01/30 01:36:15;;;;;;;1.00;0.90;;;4.40;99.90;;;;;;5052121;28;20433;-61
2021/01/30 01:38:41;;;;;;;1.00;1.00;;;4.40;99.90;;;;;;5047563;28;20485;-61
2021/01/30 01:41:08;;;;;;;1.47;1.00;;;4.30;99.90;;;;;;5049790;28;20494;-63
2021/01/30 01:43:34;;;;;;;0.90;0.80;;;4.30;99.90;;;;;;5049353;28;20447;-61
2021/01/30 01:46:17;;;;;;;2.30;0.83;;;4.20;99.90;;;;;;5050570;28;20433;-61
2021/01/30 01:48:58;;;;;;;1.40;0.70;;;4.20;99.90;;;;;;5047706;28;20567;-61
2021/01/30 01:51:38;;;;;;;2.17;0.80;;;4.20;99.90;;;;;;5052371;28;20996;-61
2021/01/30 01:54:08;;;;;;;0.80;0.77;;;4.20;99.90;;;;;;5037949;28;20418;-62
2021/01/30 01:56:37;;;;;;;1.13;0.80;;;4.20;99.90;;;;;;5040024;28;20461;-62
2021/01/30 01:59:16;;;;;;;2.10;0.80;;;4.30;99.90;;;;;;5045146;28;20463;-61
2021/01/30 02:01:42;;;;;;;1.27;0.70;;;4.30;99.90;;;;;;5051204;28;20453;-60
2021/01/30 02:04:11;;;;;;;1.10;0.77;;;4.30;99.90;;;;;;5043901;28;20476;-61
2021/01/30 02:06:41;;;;;;;1.33;0.90;;;4.30;99.90;;;;;;5051181;28;20203;-61
2021/01/30 02:09:21;;;;;;;0.97;0.97;;;4.30;99.90;;;;;;5046258;28;20446;-62
2021/01/30 02:11:54;;;;;;;2.60;0.90;;;4.30;99.90;;;;;;5052938;28;20428;-62
2021/01/30 02:14:20;;;;;;;1.93;0.90;;;4.30;99.90;;;;;;5048744;28;20425;-61
2021/01/30 02:16:50;;;;;;;2.07;0.80;;;4.30;99.90;;;;;;5051423;28;20544;-62
2021/01/30 02:19:53;;;;;;;2.00;0.90;;;4.30;99.90;;;;;;5047594;28;20448;-61
2021/01/30 02:22:57;;;;;;;1.63;0.80;;;4.30;99.90;;;;;;5042110;28;20460;-61
2021/01/30 02:25:47;;;;;;;1.03;0.90;;;4.30;99.90;;;;;;5046460;28;20435;-61
2021/01/30 02:28:24;;;;;;;0.70;0.70;;;4.30;99.90;;;;;;5044558;28;20466;-61
2021/01/30 02:31:17;;;;;;;0.80;0.80;;;4.30;99.90;;;;;;5048819;28;20953;-61
2021/01/30 02:33:55;;;;;;;0.87;0.73;;;4.30;99.90;;;;;;5044449;28;20938;-61
2021/01/30 02:36:29;;;;;;;5.23;1.00;;;4.30;99.90;;;;;;5030427;28;20850;-60
2021/01/30 02:39:08;;;;;;;5.90;1.07;;;4.30;99.90;;;;;;5032917;28;20549;-60
2021/01/30 02:41:37;;;;;;;1.43;0.97;;;4.30;99.90;;;;;;5047302;28;20435;-61
2021/01/30 02:44:07;;;;;;;1.07;0.83;;;4.30;99.90;;;;;;5048554;28;20464;-61
2021/01/30 02:46:37;;;;;;;2.00;0.93;;;4.30;99.90;;;;;;5048978;28;20436;-62
2021/01/30 02:49:11;;;;;;;2.53;1.00;;;4.30;99.90;;;;;;5042818;28;20479;-62
2021/01/30 02:51:52;;;;;;;1.87;1.07;;;4.30;99.90;;;;;;5035195;28;20422;-62
2021/01/30 02:54:18;;;;;;;1.50;1.30;;;4.30;99.90;;;;;;5050201;28;20421;-62
2021/01/30 02:56:46;;;;;;;2.20;1.20;;;4.40;99.90;;;;;;5045061;28;20537;-61
2021/01/30 02:59:16;;;;;;;1.80;1.17;;;4.40;99.90;;;;;;5050490;28;20179;-61
2021/01/30 03:01:42;;;;;;;1.50;1.13;;;4.40;99.90;;;;;;5040536;28;20484;-61
2021/01/30 03:04:17;;;;;;;2.40;1.00;;;4.40;99.90;;;;;;5048704;28;20432;-61
2021/01/30 03:06:52;;;;;;;2.80;1.20;;;4.30;99.90;;;;;;5049600;28;20222;-60
2021/01/30 03:09:23;;;;;;;2.50;1.33;;;4.30;99.90;;;;;;5049262;28;20452;-61
2021/01/30 03:12:02;;;;;;;1.77;1.03;;;4.30;99.90;;;;;;5049302;28;20432;-63
2021/01/30 03:14:29;;;;;;;6.73;1.40;;;4.30;99.90;;;;;;5047327;28;20466;-61
2021/01/30 03:16:59;;;;;;;2.97;1.13;;;4.30;99.90;;;;;;5037742;28;20445;-62
2021/01/30 03:19:29;;;;;;;2.70;1.00;;;4.20;99.90;;;;;;5039776;28;20445;-62
2021/01/30 03:22:07;;;;;;;7.00;1.10;;;4.20;99.90;;;;;;5045534;28;20426;-62
2021/01/30 03:24:38;;;;;;;1.70;1.40;;;4.20;99.90;;;;;;5049802;28;20429;-61
2021/01/30 03:27:03;;;;;;;4.37;1.30;;;4.20;99.90;;;;;;5048124;28;20497;-60
2021/01/30 03:29:29;;;;;;;1.03;1.03;;;4.20;99.90;;;;;;5048461;28;20485;-62
2021/01/30 03:31:55;;;;;;;1.70;1.17;;;4.20;99.90;;;;;;5043714;28;20471;-61
2021/01/30 03:34:20;;;;;;;4.03;1.10;;;4.20;99.90;;;;;;5048387;28;20183;-61
2021/01/30 03:36:46;;;;;;;3.33;1.30;;;4.20;99.90;;;;;;5048103;28;20377;-62
2021/01/30 03:39:16;;;;;;;7.30;2.50;;;4.20;99.90;;;;;;5049073;28;20175;-61
2021/01/30 03:41:43;;;;;;;2.97;1.40;;;4.20;99.90;;;;;;5050770;28;20440;-62
2021/01/30 03:44:10;;;;;;;9.93;1.90;;;4.20;99.90;;;;;;5035765;28;20430;-61
2021/01/30 03:46:36;;;;;;;2.60;1.63;;;4.20;99.90;;;;;;5043068;28;20449;-61
2021/01/30 03:49:02;;;;;;;4.73;1.70;;;4.20;99.90;;;;;;5046769;28;20445;-61
2021/01/30 03:51:28;;;;;;;2.93;1.83;;;4.20;99.90;;;;;;5046328;28;20807;-61
2021/01/30 03:53:54;;;;;;;5.33;1.57;;;4.20;99.90;;;;;;5049887;28;20199;-62
2021/01/30 03:56:19;;;;;;;5.87;1.53;;;4.20;99.90;;;;;;5056446;28;20691;-61
2021/01/30 03:58:46;;;;;;;4.97;1.40;;;4.20;99.90;;;;;;5050188;28;20288;-61
2021/01/30 04:01:13;;;;;;;4.03;1.23;;;4.20;99.90;;;;;;5039217;28;20178;-61
2021/01/30 04:03:39;;;;;;;3.27;1.53;;;4.20;99.90;;;;;;5044529;28;20429;-61
2021/01/30 04:06:09;;;;;;;5.40;1.47;;;4.20;99.90;;;;;;5053607;28;20459;-62
2021/01/30 04:08:35;;;;;;;4.73;1.87;;;4.10;99.90;;;;;;5045606;28;20689;-61
2021/01/30 04:11:01;;;;;;;10.33;2.03;;;4.10;99.90;;;;;;5033658;28;20857;-61
2021/01/30 04:13:27;;;;;;;9.80;2.47;;;4.10;99.90;;;;;;5049473;28;20528;-61
2021/01/30 04:15:53;;;;;;;5.43;2.00;;;4.10;99.90;;;;;;5049588;28;20262;-61
2021/01/30 04:18:19;;;;;;;6.83;1.87;;;4.10;99.90;;;;;;5045058;28;20493;-62
2021/01/30 04:20:44;;;;;;;16.37;3.00;;;4.10;99.90;;;;;;5039644;28;20237;-62
2021/01/30 04:23:10;;;;;;;8.43;1.80;;;4.10;99.90;;;;;;5048292;28;20507;-61
2021/01/30 04:25:36;;;;;;;4.90;1.77;;;4.10;99.90;;;;;;5048447;28;20183;-63
2021/01/30 04:28:03;;;;;;;2.30;1.70;;;4.10;99.90;;;;;;5051405;28;20496;-62
2021/01/30 04:30:30;;;;;;;13.03;2.07;;;4.10;99.90;;;;;;5055231;28;20434;-62
2021/01/30 04:32:56;;;;;;;5.00;1.80;;;4.10;99.90;;;;;;5045125;28;20445;-61
2021/01/30 04:35:26;;;;;;;3.60;1.43;;;4.10;99.90;;;;;;5044016;28;20430;-61
2021/01/30 04:37:52;;;;;;;5.43;2.20;;;4.10;99.90;;;;;;5049860;28;20252;-62
2021/01/30 04:40:33;;;;;;;6.50;2.00;;;4.10;99.90;;;;;;5053895;28;20520;-60
2021/01/30 04:43:25;;;;;;;8.00;1.80;;;4.10;99.90;;;;;;5051012;28;20177;-62
2021/01/30 04:46:15;;;;;;;9.10;2.00;;;4.20;99.90;;;;;;5046303;28;20437;-62
2021/01/30 04:49:12;;;;;;;9.70;2.13;;;4.20;99.90;;;;;;5050897;28;20440;-62
2021/01/30 04:51:57;;;;;;;2.07;1.40;;;4.20;99.90;;;;;;5016329;28;20443;-59
2021/01/30 04:54:39;;;;;;;6.57;2.00;;;4.20;99.90;;;;;;5051998;28;20945;-60
2021/01/30 04:57:12;;;;;;;1.90;1.37;;;4.20;99.90;;;;;;5047647;28;20460;-62
2021/01/30 05:00:02;;;;;;;8.13;1.77;;;4.20;99.90;;;;;;5055838;28;20438;-60
2021/01/30 05:02:44;;;;;;;4.83;1.60;;;4.20;99.90;;;;;;5044473;28;20434;-61
2021/01/30 05:05:14;;;;;;;8.43;1.60;;;4.20;99.90;;;;;;5051741;28;20518;-61
2021/01/30 05:08:13;;;;;;;5.43;1.40;;;4.20;99.90;;;;;;5048484;28;20538;-61
2021/01/30 05:10:45;;;;;;;4.90;1.60;;;4.20;99.90;;;;;;5037452;28;20426;-61
2021/01/30 05:13:41;;;;;;;3.20;1.30;;;4.20;99.90;;;;;;5042226;28;20511;-62
2021/01/30 05:16:23;;;;;;;11.77;1.50;;;4.20;99.90;;;;;;5048093;28;20429;-61
2021/01/30 05:18:58;;;;;;;3.70;1.60;;;4.20;99.90;;;;;;5037628;28;20469;-61
2021/01/30 05:21:47;;;;;;;3.17;1.47;;;4.20;99.90;;;;;;5048231;28;20437;-62
2021/01/30 05:24:15;;;;;;;2.83;1.57;;;4.20;99.90;;;;;;5051919;28;20523;-62
2021/01/30 05:27:18;;;;;;;2.23;1.10;;;4.20;99.90;;;;;;5050732;28;20487;-61
2021/01/30 05:29:56;;;;;;;2.50;1.30;;;4.20;99.90;;;;;;5064128;28;20831;-61
2021/01/30 05:32:25;;;;;;;7.47;1.90;;;4.20;99.90;;;;;;5051426;28;20526;-61
2021/01/30 05:35:03;;;;;;;6.60;1.60;;;4.10;99.90;;;;;;5049387;28;20433;-62
2021/01/30 05:37:35;;;;;;;5.90;2.03;;;4.10;99.90;;;;;;5051273;28;20471;-61
2021/01/30 05:40:31;;;;;;;11.70;2.47;;;4.10;99.90;;;;;;5052167;28;20437;-61
2021/01/30 05:43:11;;;;;;;4.40;1.43;;;4.10;99.90;;;;;;5060766;28;20433;-62
2021/01/30 05:45:41;;;;;;;3.73;1.37;;;4.10;99.90;;;;;;5050535;28;20444;-61
2021/01/30 05:48:15;;;;;;;7.40;1.80;;;4.10;99.90;;;;;;5053119;28;20495;-61
2021/01/30 05:51:05;;;;;;;5.30;1.70;;;4.20;99.90;;;;;;5045317;28;20531;-62
2021/01/30 05:53:31;;;;;;;5.93;2.23;;;4.10;99.90;;;;;;5053923;28;20447;-61
2021/01/30 05:55:57;;;;;;;11.37;2.37;;;4.20;99.90;;;;;;5052597;28;20422;-61
2021/01/30 05:58:25;;;;;;;4.30;1.90;;;4.20;99.90;;;;;;5049581;28;20860;-61
2021/01/30 06:01:16;;;;;;;8.20;1.97;;;4.20;99.90;;;;;;5051866;28;20430;-62
2021/01/30 06:04:02;;;;;;;13.40;2.17;;;4.10;99.90;;;;;;5045496;28;20505;-63
2021/01/30 06:06:37;;;;;;;4.47;1.60;;;4.10;99.90;;;;;;5050863;28;20553;-62
2021/01/30 06:09:38;;;;;;;6.43;2.33;;;4.10;99.90;;;;;;5041873;28;20536;-61
2021/01/30 06:12:24;;;;;;;8.27;2.00;;;4.10;99.90;;;;;;5045176;28;20447;-62
2021/01/30 06:14:50;;;;;;;8.30;1.67;;;4.10;99.90;;;;;;5052534;28;20428;-61
2021/01/30 06:17:25;;;;;;;4.63;1.77;;;4.10;99.90;;;;;;5043350;28;21061;-61
2021/01/30 06:20:05;;;;;;;5.63;1.63;;;4.10;99.90;;;;;;5047853;28;20460;-61
2021/01/30 06:22:31;;;;;;;4.80;1.73;;;4.10;99.90;;;;;;5065545;28;20469;-60
2021/01/30 06:24:57;;;;;;;8.57;1.93;;;4.10;99.90;;;;;;5050084;28;20441;-61
2021/01/30 06:27:28;;;;;;;4.17;1.73;;;4.10;99.90;;;;;;5043182;28;20217;-60
2021/01/30 06:30:13;;;;;;;12.00;2.30;;;4.10;99.90;;;;;;5050399;28;20190;-61
2021/01/30 06:32:44;;;;;;;16.43;1.87;;;4.10;99.90;;;;;;5030400;28;20799;-63
2021/01/30 06:35:19;;;;;;;8.27;2.10;;;4.00;99.90;;;;;;5037857;28;20928;-62
2021/01/30 06:37:59;;;;;;;13.40;3.00;;;4.00;99.90;;;;;;5040687;28;20480;-60
2021/01/30 06:40:48;;;;;;;8.13;2.90;;;4.00;99.90;;;;;;5039590;28;20444;-62
2021/01/30 06:43:51;;;;;;;10.57;3.10;;;4.00;99.90;;;;;;5041033;28;20501;-61
2021/01/30 06:46:21;;;;;;;12.40;3.53;;;4.00;99.90;;;;;;5022425;28;20470;-61
2021/01/30 06:48:53;;;;;;;9.13;2.60;;;4.00;99.90;;;;;;5045942;28;20439;-62
2021/01/30 06:51:23;;;;;;;13.20;2.43;;;4.00;99.90;;;;;;5047767;28;20820;-62
2021/01/30 06:53:49;;;;;;;6.10;2.50;;;4.00;99.90;;;;;;5046854;28;20425;-62
2021/01/30 06:56:22;;;;;;;11.00;2.27;;;4.00;99.90;;;;;;5048398;28;20437;-61
2021/01/30 06:58:50;;;;;;;7.07;2.37;;;4.00;99.90;;;;;;5047742;28;20457;-62
2021/01/30 07:01:22;;;;;;;6.60;2.33;;;4.00;99.90;;;;;;5048350;28;20433;-62
2021/01/30 07:04:10;;;;;;;11.03;2.20;;;4.00;99.90;;;;;;5048946;28;20465;-60
2021/01/30 07:07:22;;;;;;;5.73;2.40;;;4.00;99.90;;;;;;5049641;28;20465;-62
2021/01/30 07:10:25;;;;;;;7.63;2.83;;;4.00;99.90;;;;;;5050873;28;21017;-62
2021/01/30 07:12:59;;;;;;;6.77;2.77;;;4.00;99.90;;;;;;5051423;28;20425;-61
2021/01/30 07:15:29;;;;;;;5.10;2.30;;;4.00;99.90;;;;;;5048036;28;20477;-61
2021/01/30 07:18:13;;;;;;;12.20;2.93;;;4.00;99.90;;;;;;5040620;28;20871;-60
2021/01/30 07:20:49;;;;;;;11.77;2.50;;;4.00;99.90;;;;;;5047931;28;20417;-60
2021/01/30 07:23:38;;;;;;;9.33;2.73;;;4.00;99.90;;;;;;5062508;28;20439;-61
2021/01/30 07:26:13;;;;;;;14.30;2.57;;;4.00;99.90;;;;;;5045341;28;20982;-61
2021/01/30 07:29:03;;;;;;;3.90;2.10;;;4.00;99.90;;;;;;5051315;28;20456;-61
2021/01/30 07:31:55;;;;;;;5.80;2.23;;;4.10;99.90;;;;;;5031642;28;20442;-60
2021/01/30 07:34:30;;;;;;;7.50;2.70;;;4.10;99.90;;;;;;5037161;28;20573;-59
2021/01/30 07:37:06;;;;;;;9.27;2.47;;;4.10;99.90;;;;;;5041952;28;20507;-62
2021/01/30 07:39:55;;;;;;;14.50;2.47;;;4.10;99.90;;;;;;5042128;28;20429;-60
2021/01/30 07:42:40;;;;;;;10.83;2.67;;;4.20;99.90;;;;;;5046323;28;20901;-61
2021/01/30 07:45:21;;;;;;;9.33;2.53;;;4.20;99.90;;;;;;5039299;28;20804;-61
2021/01/30 07:47:47;;;;;;;9.20;2.57;;;4.20;99.90;;;;;;5039351;28;20487;-61
2021/01/30 07:50:30;;;;;;;16.40;2.40;;;4.20;99.90;;;;;;5044982;28;20429;-61
2021/01/30 07:53:11;;;;;;;9.53;2.60;;;4.20;99.90;;;;;;5058260;28;20452;-62
2021/01/30 07:55:40;;;;;;;8.77;2.27;;;4.20;99.90;;;;;;5054594;28;20429;-62
2021/01/30 07:58:34;;;;;;;7.03;2.00;;;4.20;99.90;;;;;;5038795;28;20556;-62
2021/01/30 08:01:41;;;;;;;3.97;1.70;;;4.30;99.90;;;;;;5019090;28;20437;-60
2021/01/30 08:04:30;;;;;;;14.20;3.00;;;4.30;99.90;;;;;;5033737;28;20447;-63
2021/01/30 08:07:24;;;;;;;13.13;4.13;;;4.40;99.90;;;;;;5039539;28;20450;-63
2021/01/30 08:10:17;;;;;;;10.23;2.37;;;4.40;99.90;;;;;;5043339;28;20503;-60
2021/01/30 08:12:43;;;;;;;8.03;2.13;;;4.40;99.90;;;;;;5039789;28;20452;-61
2021/01/30 08:15:14;;;;;;;7.33;1.77;;;4.40;99.90;;;;;;5042238;28;20935;-63
2021/01/30 08:17:46;;;;;;;5.87;2.30;;;4.40;99.90;;;;;;5036580;28;20210;-62
2021/01/30 08:20:17;;;;;;;11.53;2.43;;;4.40;99.90;;;;;;5033800;28;20429;-60
2021/01/30 08:23:11;;;;;;;11.97;3.50;;;4.30;99.90;;;;;;5044052;28;20425;-61
2021/01/30 08:25:59;;;;;;;7.43;2.40;;;4.30;99.90;;;;;;5020705;28;20439;-61
2021/01/30 08:28:31;;;;;;;7.03;2.63;;;4.20;99.90;;;;;;5041578;28;20469;-63
2021/01/30 08:30:57;;;;;;;10.87;2.23;;;4.20;99.90;;;;;;5039417;28;20954;-60
2021/01/30 08:33:23;;;;;;;7.67;3.10;;;4.20;99.90;;;;;;5036565;28;20441;-62
2021/01/30 08:35:55;;;;;;;8.10;3.20;;;4.20;99.90;;;;;;5049359;28;20240;-61
2021/01/30 08:38:31;;;;;;;10.03;3.73;;;4.20;99.90;;;;;;5056203;28;20464;-61
2021/01/30 08:41:20;;;;;;;15.23;3.57;;;4.20;99.90;;;;;;5040852;28;20818;-61
2021/01/30 08:43:51;;;;;;;7.93;3.37;;;4.20;99.90;;;;;;5034486;28;20575;-68
2021/01/30 08:46:26;;;;;;;6.50;3.27;;;4.20;99.90;;;;;;5036377;28;20429;-63
2021/01/30 08:49:10;;;;;;;16.20;4.90;;;4.20;99.90;;;;;;5034799;28;20434;-62
2021/01/30 08:51:36;;;;;;;11.50;3.53;;;4.20;99.90;;;;;;5039662;28;20432;-62
2021/01/30 08:54:26;;;;;;;13.57;3.57;;;4.20;99.90;;;;;;5032929;28;21089;-62
2021/01/30 08:56:55;;;;;;;10.27;3.77;;;4.10;99.90;;;;;;5043617;28;20547;-61
2021/01/30 08:59:48;;;;;;;11.40;4.70;;;4.20;99.90;;;;;;5038506;28;20465;-61
2021/01/30 09:02:49;;;;;;;13.37;5.03;;;4.10;99.90;;;;;;5038245;28;20558;-61
2021/01/30 09:05:20;;;;;;;13.87;5.00;;;4.10;99.90;;;;;;5046465;28;20452;-61
2021/01/30 09:07:50;;;;;;;14.40;4.20;;;4.10;99.90;;;;;;5051412;28;20463;-61
2021/01/30 09:10:25;;;;;;;7.40;3.10;;;4.10;99.90;;;;;;5036858;28;20521;-62
2021/01/30 09:12:56;;;;;;;9.57;3.53;;;4.20;99.90;;;;;;5042964;28;20528;-62
2021/01/30 09:15:41;;;;;;;11.53;4.57;;;4.20;99.90;;;;;;5040571;28;20437;-60
2021/01/30 09:18:22;;;;;;;15.43;4.60;;;4.30;99.90;;;;;;5049957;28;20454;-60
2021/01/30 09:21:11;;;;;;;14.73;4.63;;;4.40;99.90;;;;;;5047103;28;20424;-61
2021/01/30 09:24:07;;;;;;;19.80;6.00;;;4.50;99.90;;;;;;5050093;28;21247;-61
2021/01/30 09:26:51;;;;;;;17.20;6.33;;;4.50;99.90;;;;;;5048713;28;20428;-60
2021/01/30 09:29:34;;;;;;;20.97;5.87;;;4.60;99.90;;;;;;5050831;28;20834;-61
2021/01/30 09:32:05;;;;;;;17.27;4.43;;;4.70;99.90;;;;;;5045873;28;20661;-60
2021/01/30 09:34:37;;;;;;;20.87;6.07;;;4.70;99.90;;;;;;5037500;28;20437;-60
2021/01/30 09:37:03;;;;;;;14.10;5.10;;;4.70;99.90;;;;;;5048702;28;20449;-61
2021/01/30 09:39:32;;;;;;;14.57;6.37;;;4.70;99.90;;;;;;5033244;28;20440;-61
2021/01/30 09:42:19;;;;;;;13.80;6.03;;;4.70;99.90;;;;;;5049566;28;20186;-61
2021/01/30 09:45:15;;;;;;;13.13;6.53;;;4.70;99.90;;;;;;5044216;28;20428;-61
2021/01/30 09:47:50;;;;;;;16.73;6.30;;;4.70;99.90;;;;;;5052647;28;20519;-61
2021/01/30 09:50:34;;;;;;;17.83;7.47;;;4.80;99.90;;;;;;5041243;28;20440;-63
2021/01/30 09:53:07;;;;;;;14.67;6.73;;;4.80;99.90;;;;;;5059436;28;20443;-61
2021/01/30 09:55:37;;;;;;;12.97;6.67;;;4.80;99.90;;;;;;5052811;28;20472;-61
2021/01/30 09:58:20;;;;;;;15.63;7.13;;;4.80;99.90;;;;;;5050749;28;20568;-61
2021/01/30 10:00:51;;;;;;;22.23;7.63;;;4.90;99.90;;;;;;5052230;28;20414;-61
2021/01/30 10:03:35;;;;;;;20.03;9.83;;;5.00;99.90;;;;;;5048218;28;20432;-61
2021/01/30 10:06:11;;;;;;;21.63;8.20;;;5.00;99.90;;;;;;5044575;28;20537;-61
2021/01/30 10:08:37;;;;;;;18.80;7.23;;;5.10;99.90;;;;;;5052514;28;20436;-61
2021/01/30 10:11:10;;;;;;;16.80;7.30;;;5.10;99.90;;;;;;5052772;28;21040;-61
2021/01/30 10:13:38;;;;;;;21.20;8.30;;;5.20;99.90;;;;;;5051852;28;20228;-61
2021/01/30 10:16:19;;;;;;;28.97;8.67;;;5.30;99.90;;;;;;5046609;28;20425;-60
2021/01/30 10:19:00;;;;;;;12.63;6.33;;;5.30;99.90;;;;;;5044069;28;20461;-61
2021/01/30 10:21:37;;;;;;;17.90;6.60;;;5.40;99.90;;;;;;5037978;28;20958;-61
2021/01/30 10:24:14;;;;;;;13.27;5.10;;;5.40;99.90;;;;;;5065090;28;20436;-60
2021/01/30 10:26:40;;;;;;;12.00;5.63;;;5.50;99.90;;;;;;5051608;28;20455;-60
2021/01/30 10:29:10;;;;;;;12.33;5.47;;;5.60;99.90;;;;;;5055996;28;20434;-62
2021/01/30 10:31:41;;;;;;;10.50;3.10;;;5.60;99.90;;;;;;5044268;28;20955;-61
2021/01/30 10:34:24;;;;;;;19.50;4.37;;;5.60;99.90;;;;;;5050391;28;20434;-60
2021/01/30 10:37:39;;;;;;;12.57;3.13;;;5.70;99.90;;;;;;5045688;28;20451;-61
2021/01/30 10:40:19;;;;;;;9.43;3.20;;;5.70;99.90;;;;;;5036766;28;20439;-61
2021/01/30 10:42:45;;;;;;;7.67;3.03;;;5.70;99.90;;;;;;5044416;28;20440;-60
2021/01/30 10:45:22;;;;;;;14.33;5.17;;;5.70;99.90;;;;;;5050089;28;20939;-61
2021/01/30 10:48:08;;;;;;;10.77;4.30;;;5.70;99.90;;;;;;5042288;28;21134;-60
2021/01/30 10:50:41;;;;;;;11.60;4.00;;;5.70;99.90;;;;;;5045865;28;20441;-60
2021/01/30 10:53:32;;;;;;;12.03;3.80;;;5.60;99.90;;;;;;5049969;28;20512;-61
2021/01/30 10:55:58;;;;;;;10.20;4.27;;;5.60;99.90;;;;;;5047932;28;20809;-60
2021/01/30 10:58:26;;;;;;;13.00;3.67;;;5.60;99.90;;;;;;5041755;28;20477;-60
2021/01/30 11:00:58;;;;;;;10.53;3.90;;;5.60;99.90;;;;;;5046726;28;21101;-61
2021/01/30 11:03:47;;;;;;;10.53;3.30;;;5.60;99.90;;;;;;5048659;28;20721;-61
2021/01/30 11:06:29;;;;;;;6.03;2.93;;;5.60;99.90;;;;;;5044700;28;20958;-60
2021/01/30 11:09:16;;;;;;;13.53;3.70;;;5.70;99.90;;;;;;5044061;28;20963;-60
2021/01/30 11:11:44;;;;;;;14.30;3.37;;;5.70;99.90;;;;;;5048565;28;20503;-61
2021/01/30 11:14:24;;;;;;;13.27;3.63;;;5.80;99.90;;;;;;5038931;28;20442;-60
2021/01/30 11:16:50;;;;;;;6.93;3.30;;;5.80;99.90;;;;;;5046875;28;20448;-61
2021/01/30 11:19:24;;;;;;;8.80;3.53;;;5.90;99.90;;;;;;5046591;28;20499;-61
2021/01/30 11:22:02;;;;;;;10.53;4.87;;;5.90;99.90;;;;;;5044425;28;20845;-61
2021/01/30 11:24:35;;;;;;;11.93;3.90;;;5.90;99.90;;;;;;5045868;28;20476;-61
2021/01/30 11:27:02;;;;;;;8.53;4.13;;;5.90;99.90;;;;;;5052531;28;20454;-61
2021/01/30 11:29:45;;;;;;;16.63;4.83;;;5.90;99.90;;;;;;5036130;28;20441;-62
2021/01/30 11:32:16;;;;;;;10.60;5.00;;;5.90;99.90;;;;;;5036756;28;20426;-59
2021/01/30 11:34:46;;;;;;;20.50;5.20;;;5.90;99.90;;;;;;5032752;28;20469;-61
2021/01/30 11:37:14;;;;;;;11.70;4.17;;;5.80;99.90;;;;;;5035290;28;20991;-58
2021/01/30 11:39:41;;;;;;;14.17;5.97;;;5.80;99.90;;;;;;5035420;28;20729;-62
2021/01/30 11:42:08;;;;;;;19.20;5.67;;;5.80;99.90;;;;;;5040301;28;20839;-62
2021/01/30 11:44:33;;;;;;;13.70;4.03;;;5.80;99.90;;;;;;5041454;28;20438;-61
2021/01/30 11:46:59;;;;;;;10.50;4.60;;;5.80;99.90;;;;;;5052298;28;20523;-62
2021/01/30 11:49:25;;;;;;;8.57;4.10;;;5.70;99.90;;;;;;5038954;28;20716;-61
2021/01/30 11:51:50;;;;;;;14.27;5.83;;;5.70;99.90;;;;;;5037631;28;20183;-60
2021/01/30 11:54:16;;;;;;;9.23;4.10;;;5.70;99.90;;;;;;5042742;28;20699;-60
2021/01/30 11:56:42;;;;;;;13.73;4.77;;;5.60;99.90;;;;;;5040183;28;20237;-61
2021/01/30 11:59:12;;;;;;;14.23;4.23;;;5.60;99.90;;;;;;5042171;28;20207;-62
2021/01/30 12:01:41;;;;;;;22.40;5.90;;;5.60;99.90;;;;;;5039876;28;20974;-61
2021/01/30 12:04:09;;;;;;;10.40;3.40;;;5.60;99.90;;;;;;5034997;28;20464;-58
2021/01/30 12:06:34;;;;;;;7.90;3.50;;;5.50;99.90;;;;;;5030090;28;20428;-60
2021/01/30 12:09:00;;;;;;;6.27;3.40;;;5.60;99.90;;;;;;5037320;28;20845;-61
2021/01/30 12:11:26;;;;;;;6.60;3.30;;;5.60;99.90;;;;;;5018510;28;20210;-62
2021/01/30 12:13:52;;;;;;;7.03;3.50;;;5.50;99.90;;;;;;5034197;28;20692;-61
2021/01/30 12:16:23;;;;;;;4.43;2.70;;;5.60;99.90;;;;;;5037045;28;21025;-61
2021/01/30 12:18:48;;;;;;;9.03;2.97;;;5.50;99.90;;;;;;5037472;28;20565;-61
2021/01/30 12:21:14;;;;;;;9.70;3.17;;;5.50;99.90;;;;;;5034986;28;20524;-61
2021/01/30 12:23:42;;;;;;;5.53;2.37;;;5.50;99.90;;;;;;5028549;28;20430;-61
2021/01/30 12:26:11;;;;;;;7.70;3.27;;;5.50;99.90;;;;;;5037809;28;20178;-63
2021/01/30 12:28:37;;;;;;;9.93;2.63;;;5.40;99.90;;;;;;5039191;28;20461;-61
2021/01/30 12:31:04;;;;;;;6.33;2.70;;;5.40;99.90;;;;;;5039180;28;20459;-61
2021/01/30 12:33:30;;;;;;;8.40;2.43;;;5.30;99.90;;;;;;5035041;28;20325;-60
2021/01/30 12:35:56;;;;;;;4.83;2.00;;;5.30;99.90;;;;;;5029806;28;20447;-61
2021/01/30 12:38:23;;;;;;;4.03;2.60;;;5.20;99.90;;;;;;5033407;28;20212;-61
2021/01/30 12:40:51;;;;;;;5.17;3.00;;;5.20;99.90;;;;;;5035174;28;21400;-61
2021/01/30 12:43:21;;;;;;;4.93;2.73;;;5.10;99.90;;;;;;5037440;28;20862;-62
2021/01/30 12:45:50;;;;;;;6.93;2.93;;;5.10;99.90;;;;;;5023460;28;20436;-62
2021/01/30 12:48:17;;;;;;;7.93;3.90;;;5.10;99.90;;;;;;5034291;28;20461;-61
2021/01/30 12:50:44;;;;;;;4.27;2.73;;;5.10;99.90;;;;;;5035606;28;20866;-61
2021/01/30 12:53:10;;;;;;;5.80;2.63;;;5.10;99.90;;;;;;5035557;28;20437;-63
2021/01/30 12:55:39;;;;;;;3.30;2.13;;;5.10;99.90;;;;;;5043327;28;20953;-61
2021/01/30 12:58:32;;;;;;;2.67;1.80;;;5.00;99.90;;;;;;5024999;28;21029;-62
2021/01/30 13:00:58;;;;;;;3.07;2.43;;;5.00;99.90;;;;;;5024569;28;20448;-62
2021/01/30 13:03:25;;;;;;;8.30;2.53;;;5.00;99.90;;;;;;5036409;28;20440;-61
2021/01/30 13:05:52;;;;;;;5.27;2.23;;;5.00;99.90;;;;;;5040581;28;20509;-60
2021/01/30 13:08:19;;;;;;;4.30;2.40;;;5.00;99.90;;;;;;5030217;28;20514;-61
2021/01/30 13:10:45;;;;;;;3.40;2.03;;;5.00;99.90;;;;;;5033470;28;21526;-61
2021/01/30 13:13:11;;;;;;;3.57;1.97;;;5.00;99.90;;;;;;5036609;28;20433;-62
2021/01/30 13:15:37;;;;;;;5.83;2.10;;;5.00;99.90;;;;;;5038310;28;20202;-62
2021/01/30 13:18:04;;;;;;;7.00;2.20;;;4.90;99.90;;;;;;5030360;28;20518;-62
2021/01/30 13:20:30;;;;;;;5.63;2.00;;;5.00;99.90;;;;;;5038528;28;20884;-62
2021/01/30 13:22:56;;;;;;;6.33;1.97;;;4.90;99.90;;;;;;5043949;28;20476;-60
2021/01/30 13:25:23;;;;;;;6.80;2.30;;;4.90;99.90;;;;;;5028147;28;20202;-61
2021/01/30 13:27:49;;;;;;;4.33;2.30;;;4.90;99.90;;;;;;5032722;28;21316;-61